Time;durP1;ratioP1;P1;durP2;ratioP2;P2;SDS_P1;SDS_P2;PMS_P1;PMS_P2;Temp;Humidity;BMP_temperature;BMP_pressure;BME280_temperature;BME280_humidity;BME280_pressure;Samples;Min_cycle;Max_cycle;Signal;HPM_P1;HPM_P2
2021/06/14 00:00:57;;;;;;;5.43;4.30;;;26.20;44.00;;;;;;4991985;28;20230;-65
2021/06/14 00:03:29;;;;;;;4.93;4.40;;;26.20;44.10;;;;;;4991032;28;20209;-65
2021/06/14 00:05:59;;;;;;;6.10;4.27;;;26.20;44.10;;;;;;4990227;28;20203;-65
2021/06/14 00:08:28;;;;;;;6.97;4.63;;;26.10;44.10;;;;;;4984947;28;20200;-64
2021/06/14 00:11:01;;;;;;;7.37;4.57;;;26.10;44.10;;;;;;4989956;28;20242;-65
2021/06/14 00:13:31;;;;;;;4.63;3.93;;;26.10;44.10;;;;;;4989731;28;20251;-65
2021/06/14 00:16:00;;;;;;;5.77;4.67;;;26.10;44.10;;;;;;4990278;28;20200;-64
2021/06/14 00:18:31;;;;;;;6.03;4.30;;;26.10;44.20;;;;;;4995731;28;20272;-65
2021/06/14 00:21:02;;;;;;;8.13;4.63;;;26.10;44.20;;;;;;4975662;28;20598;-65
2021/06/14 00:23:33;;;;;;;5.60;3.73;;;26.00;44.20;;;;;;4988484;28;20211;-65
2021/06/14 00:26:09;;;;;;;9.37;3.97;;;26.00;44.30;;;;;;4967302;28;20312;-65
2021/06/14 00:28:39;;;;;;;8.03;4.30;;;26.00;44.20;;;;;;4970027;28;20668;-65
2021/06/14 00:31:09;;;;;;;6.80;4.60;;;26.00;44.30;;;;;;4968851;28;20204;-65
2021/06/14 00:33:39;;;;;;;9.03;4.60;;;26.00;44.30;;;;;;4962995;28;20224;-65
2021/06/14 00:36:10;;;;;;;15.53;4.30;;;25.90;44.30;;;;;;4955483;28;20201;-64
2021/06/14 00:38:42;;;;;;;8.47;4.20;;;25.90;44.30;;;;;;4967943;28;20299;-65
2021/06/14 00:41:15;;;;;;;7.33;4.20;;;25.90;44.40;;;;;;4970769;28;20231;-64
2021/06/14 00:43:46;;;;;;;6.50;4.57;;;25.90;44.40;;;;;;4967484;28;21026;-65
2021/06/14 00:46:16;;;;;;;5.97;4.00;;;25.90;44.40;;;;;;4970304;28;20650;-65
2021/06/14 00:48:45;;;;;;;7.20;4.93;;;25.90;44.50;;;;;;4968766;28;20232;-64
2021/06/14 00:51:15;;;;;;;7.83;4.07;;;25.90;44.40;;;;;;4966675;28;20225;-65
2021/06/14 00:53:55;;;;;;;7.43;4.83;;;25.90;44.50;;;;;;4933180;28;20243;-64
2021/06/14 00:56:27;;;;;;;5.97;4.40;;;25.80;44.40;;;;;;4970021;28;20638;-64
2021/06/14 00:58:59;;;;;;;5.23;4.37;;;25.90;44.40;;;;;;4954034;28;20204;-65
2021/06/14 01:01:29;;;;;;;9.43;4.03;;;25.80;44.30;;;;;;4964563;28;20213;-65
2021/06/14 01:04:00;;;;;;;7.90;4.10;;;25.80;44.30;;;;;;4969205;28;20189;-65
2021/06/14 01:06:32;;;;;;;6.20;3.73;;;25.80;44.30;;;;;;4972764;28;20577;-65
2021/06/14 01:09:02;;;;;;;5.80;4.00;;;25.80;44.30;;;;;;4972591;28;20212;-64
2021/06/14 01:11:48;;;;;;;6.90;3.87;;;25.80;44.30;;;;;;4968404;28;20221;-65
2021/06/14 01:15:00;;;;;;;6.23;4.33;;;25.80;44.30;;;;;;4968085;28;20225;-64
2021/06/14 01:18:04;;;;;;;7.67;3.90;;;25.70;44.20;;;;;;4973084;28;20898;-65
2021/06/14 01:20:42;;;;;;;6.20;4.33;;;25.70;44.20;;;;;;4970537;28;20283;-65
2021/06/14 01:23:47;;;;;;;7.10;4.60;;;25.70;44.20;;;;;;4969435;28;20209;-65
2021/06/14 01:26:23;;;;;;;6.67;4.27;;;25.70;44.20;;;;;;4979507;28;20227;-65
2021/06/14 01:28:54;;;;;;;5.93;4.83;;;25.70;44.20;;;;;;4988314;28;20665;-65
2021/06/14 01:31:29;;;;;;;7.90;4.33;;;25.70;44.10;;;;;;4968865;28;20200;-65
2021/06/14 01:34:02;;;;;;;5.30;4.30;;;25.70;44.10;;;;;;4989629;28;20218;-65
2021/06/14 01:36:35;;;;;;;4.33;3.93;;;25.70;44.10;;;;;;4991145;28;20204;-65
2021/06/14 01:39:07;;;;;;;6.53;4.40;;;25.70;44.10;;;;;;4966935;28;20226;-65
2021/06/14 01:41:37;;;;;;;6.70;4.70;;;25.60;44.00;;;;;;4984751;28;20215;-65
2021/06/14 01:44:07;;;;;;;5.37;4.03;;;25.60;44.00;;;;;;4971281;28;20197;-65
2021/06/14 01:46:39;;;;;;;7.43;4.47;;;25.60;44.00;;;;;;4988831;28;20295;-65
2021/06/14 01:49:28;;;;;;;6.47;4.67;;;25.60;44.00;;;;;;4954134;28;20270;-64
2021/06/14 01:51:59;;;;;;;8.10;4.73;;;25.60;43.90;;;;;;4987697;28;20224;-65
2021/06/14 01:54:28;;;;;;;7.23;4.57;;;25.60;43.90;;;;;;4989970;28;20207;-65
2021/06/14 01:57:00;;;;;;;5.70;4.20;;;25.60;43.90;;;;;;4990893;28;20234;-66
2021/06/14 01:59:39;;;;;;;5.63;4.40;;;25.60;43.90;;;;;;4988671;28;20731;-65
2021/06/14 02:02:08;;;;;;;6.90;4.37;;;25.60;43.90;;;;;;4985862;28;20232;-65
2021/06/14 02:04:46;;;;;;;7.40;4.33;;;25.50;43.80;;;;;;4990907;28;20582;-65
2021/06/14 02:07:17;;;;;;;5.33;4.17;;;25.50;43.90;;;;;;4976137;28;20216;-65
2021/06/14 02:09:50;;;;;;;7.30;4.43;;;25.50;43.80;;;;;;4956486;28;20209;-66
2021/06/14 02:12:23;;;;;;;7.07;4.63;;;25.50;43.80;;;;;;4974214;28;20764;-65
2021/06/14 02:14:54;;;;;;;6.30;4.70;;;25.50;43.90;;;;;;4985893;28;20234;-67
2021/06/14 02:17:29;;;;;;;6.13;4.33;;;25.50;43.80;;;;;;4986963;28;20283;-66
2021/06/14 02:19:59;;;;;;;5.23;4.13;;;25.50;43.80;;;;;;4990403;28;20204;-66
2021/06/14 02:22:29;;;;;;;6.77;4.83;;;25.50;43.80;;;;;;4990308;28;20208;-65
2021/06/14 02:24:57;;;;;;;6.93;4.27;;;25.50;43.70;;;;;;4998870;28;20201;-65
2021/06/14 02:27:27;;;;;;;5.80;4.50;;;25.50;43.80;;;;;;4982019;28;20236;-65
2021/06/14 02:29:56;;;;;;;5.50;4.47;;;25.40;43.70;;;;;;4984192;28;20196;-65
2021/06/14 02:32:25;;;;;;;7.20;4.33;;;25.40;43.70;;;;;;4990793;28;20674;-65
2021/06/14 02:34:55;;;;;;;5.17;3.73;;;25.40;43.70;;;;;;4987613;28;20204;-65
2021/06/14 02:37:28;;;;;;;7.63;4.47;;;25.40;43.60;;;;;;4984053;28;20200;-65
2021/06/14 02:39:59;;;;;;;6.73;4.67;;;25.40;43.60;;;;;;4977583;28;20210;-65
2021/06/14 02:42:28;;;;;;;7.87;4.83;;;25.40;43.60;;;;;;4963735;28;20235;-65
2021/06/14 02:44:57;;;;;;;6.23;4.20;;;25.40;44.20;;;;;;4995735;28;20208;-65
2021/06/14 02:47:27;;;;;;;7.83;4.67;;;25.40;44.20;;;;;;4986138;28;20912;-65
2021/06/14 02:49:57;;;;;;;5.63;4.00;;;25.40;43.60;;;;;;4991040;28;20220;-65
2021/06/14 02:52:26;;;;;;;8.10;4.50;;;25.40;44.20;;;;;;4982682;28;20208;-65
2021/06/14 02:55:07;;;;;;;7.67;4.53;;;25.40;43.50;;;;;;4996554;28;20220;-65
2021/06/14 02:57:44;;;;;;;4.53;3.90;;;25.40;43.50;;;;;;4982880;28;20216;-64
2021/06/14 03:00:13;;;;;;;7.47;4.67;;;25.40;43.50;;;;;;5000209;28;20200;-65
2021/06/14 03:02:41;;;;;;;5.77;4.60;;;25.30;43.40;;;;;;4988255;28;20582;-64
2021/06/14 03:05:10;;;;;;;5.73;4.60;;;25.40;43.50;;;;;;4972863;28;20657;-65
2021/06/14 03:07:46;;;;;;;4.93;4.40;;;25.30;43.40;;;;;;4986206;28;20592;-65
2021/06/14 03:10:15;;;;;;;5.10;4.33;;;25.30;43.50;;;;;;4992803;28;20219;-65
2021/06/14 03:12:56;;;;;;;4.73;4.00;;;25.30;43.50;;;;;;4977488;28;20211;-65
2021/06/14 03:15:29;;;;;;;6.23;3.87;;;25.30;43.60;;;;;;5000911;28;20215;-64
2021/06/14 03:18:00;;;;;;;8.03;4.43;;;25.30;43.60;;;;;;4989082;28;20695;-64
2021/06/14 03:20:32;;;;;;;5.37;4.27;;;25.30;43.60;;;;;;4996802;28;20563;-65
2021/06/14 03:23:03;;;;;;;4.40;4.00;;;25.30;43.60;;;;;;4957676;28;20215;-64
2021/06/14 03:25:32;;;;;;;5.23;4.30;;;25.30;43.60;;;;;;4984209;28;20232;-64
2021/06/14 03:28:07;;;;;;;8.33;4.43;;;25.30;43.70;;;;;;4973407;28;20243;-64
2021/06/14 03:30:45;;;;;;;5.17;3.83;;;25.20;43.60;;;;;;4990039;28;20219;-64
2021/06/14 03:33:21;;;;;;;10.37;4.67;;;25.20;43.60;;;;;;4987445;28;20220;-64
2021/06/14 03:35:53;;;;;;;7.03;4.40;;;25.20;43.60;;;;;;4987592;28;20274;-64
2021/06/14 03:38:24;;;;;;;6.13;3.93;;;25.20;43.60;;;;;;4986055;28;20676;-64
2021/06/14 03:40:53;;;;;;;6.60;3.97;;;25.20;43.60;;;;;;4988165;28;20212;-64
2021/06/14 03:43:23;;;;;;;7.13;4.30;;;25.20;43.60;;;;;;4983601;28;20220;-64
2021/06/14 03:45:53;;;;;;;5.80;3.90;;;25.20;43.60;;;;;;4986951;28;20212;-65
2021/06/14 03:48:24;;;;;;;5.80;4.13;;;25.20;43.60;;;;;;4995244;28;20665;-64
2021/06/14 03:50:56;;;;;;;5.53;3.73;;;25.20;43.60;;;;;;4984199;28;20208;-64
2021/06/14 03:53:32;;;;;;;6.67;4.20;;;25.20;43.60;;;;;;4987468;28;20221;-64
2021/06/14 03:56:08;;;;;;;6.73;4.03;;;25.20;43.60;;;;;;4986778;28;20228;-64
2021/06/14 03:58:50;;;;;;;5.93;4.27;;;25.20;43.60;;;;;;4990575;28;20291;-64
2021/06/14 04:01:23;;;;;;;7.33;4.17;;;25.20;43.60;;;;;;4985955;28;20764;-64
2021/06/14 04:06:45;;;;;;;4.73;3.73;;;25.20;43.60;;;;;;4976380;28;20199;-63
2021/06/14 04:09:17;;;;;;;5.00;3.90;;;25.20;43.60;;;;;;4988120;28;20197;-63
2021/06/14 04:11:45;;;;;;;5.33;3.80;;;25.20;43.60;;;;;;4971279;28;20205;-65
2021/06/14 04:14:15;;;;;;;7.07;4.03;;;25.20;43.60;;;;;;4986395;28;20217;-64
2021/06/14 04:16:44;;;;;;;5.53;3.90;;;25.20;43.50;;;;;;4983410;28;20703;-64
2021/06/14 04:19:18;;;;;;;4.63;3.90;;;25.10;43.40;;;;;;4975190;28;20563;-63
2021/06/14 04:21:55;;;;;;;9.53;4.30;;;25.10;43.40;;;;;;4999184;28;20211;-64
2021/06/14 04:24:24;;;;;;;4.27;3.80;;;25.10;43.40;;;;;;4993505;28;20202;-64
2021/06/14 04:26:53;;;;;;;7.40;3.90;;;25.10;43.40;;;;;;5000851;28;20240;-64
2021/06/14 04:29:30;;;;;;;6.03;3.87;;;25.10;43.40;;;;;;4991159;28;20215;-64
2021/06/14 04:31:58;;;;;;;6.50;4.37;;;25.10;44.10;;;;;;4976364;28;20200;-64
2021/06/14 04:34:30;;;;;;;5.43;4.63;;;25.10;43.40;;;;;;4977727;28;20215;-64
2021/06/14 04:37:00;;;;;;;5.80;3.80;;;25.10;43.40;;;;;;4987421;28;20664;-63
2021/06/14 04:39:38;;;;;;;8.10;4.43;;;25.10;43.60;;;;;;4981326;28;20209;-63
2021/06/14 04:42:09;;;;;;;7.23;4.87;;;25.10;43.60;;;;;;4988767;28;20243;-65
2021/06/14 04:44:40;;;;;;;6.20;4.17;;;25.10;43.50;;;;;;4988397;28;20236;-64
2021/06/14 04:47:11;;;;;;;8.50;4.70;;;25.10;43.60;;;;;;4986268;28;20196;-63
2021/06/14 04:49:41;;;;;;;7.13;4.43;;;25.10;43.60;;;;;;4965693;28;20200;-63
2021/06/14 04:52:08;;;;;;;6.97;4.97;;;25.10;43.70;;;;;;4987257;28;20204;-63
2021/06/14 04:54:41;;;;;;;5.93;4.27;;;25.00;43.60;;;;;;4987299;28;20219;-63
2021/06/14 04:57:11;;;;;;;6.93;4.80;;;25.10;43.70;;;;;;4970905;28;20223;-63
2021/06/14 04:59:42;;;;;;;5.63;4.83;;;25.00;43.70;;;;;;4974804;28;20208;-64
2021/06/14 05:02:13;;;;;;;9.10;4.90;;;25.00;43.60;;;;;;4981537;28;20693;-63
2021/06/14 05:04:42;;;;;;;7.50;5.23;;;25.00;43.60;;;;;;4987997;28;20849;-63
2021/06/14 05:07:14;;;;;;;8.97;6.03;;;25.00;43.50;;;;;;4979979;28;20208;-63
2021/06/14 05:09:41;;;;;;;9.40;6.07;;;25.00;43.70;;;;;;4974310;28;20259;-64
2021/06/14 05:12:09;;;;;;;9.07;6.10;;;25.00;43.80;;;;;;4985236;28;20203;-64
2021/06/14 05:14:46;;;;;;;6.93;5.50;;;25.00;43.60;;;;;;4982885;28;20203;-64
2021/06/14 05:17:18;;;;;;;9.03;5.43;;;25.00;43.50;;;;;;4985561;28;20226;-65
2021/06/14 05:19:48;;;;;;;8.37;5.57;;;25.00;43.40;;;;;;4986752;28;20278;-64
2021/06/14 05:22:16;;;;;;;10.47;5.57;;;25.00;43.30;;;;;;4981748;28;20224;-64
2021/06/14 05:24:45;;;;;;;9.40;5.87;;;24.90;43.20;;;;;;4986615;28;20204;-64
2021/06/14 05:27:12;;;;;;;9.47;5.40;;;24.90;42.90;;;;;;4977846;28;20548;-64
2021/06/14 05:29:42;;;;;;;8.53;5.60;;;24.90;42.90;;;;;;4966253;28;20258;-64
2021/06/14 05:32:09;;;;;;;8.67;5.60;;;24.90;42.80;;;;;;4987766;28;20209;-64
2021/06/14 05:34:39;;;;;;;8.57;5.10;;;24.90;42.50;;;;;;4989202;28;20266;-64
2021/06/14 05:37:10;;;;;;;15.00;6.30;;;24.90;42.50;;;;;;4974074;28;20203;-63
2021/06/14 05:39:41;;;;;;;68.30;17.70;;;24.90;42.70;;;;;;4969223;28;20215;-63
2021/06/14 05:42:11;;;;;;;51.40;15.57;;;24.90;44.90;;;;;;4988599;28;20212;-63
2021/06/14 05:44:40;;;;;;;62.47;15.03;;;24.80;44.70;;;;;;4988219;28;20822;-63
2021/06/14 05:47:11;;;;;;;37.67;12.33;;;24.90;45.40;;;;;;4975465;28;20716;-63
2021/06/14 05:49:42;;;;;;;32.07;11.63;;;24.90;45.70;;;;;;4980598;28;20536;-66
2021/06/14 05:52:12;;;;;;;22.47;9.77;;;24.90;44.00;;;;;;4981067;28;20465;-65
2021/06/14 05:54:41;;;;;;;18.07;8.47;;;24.70;40.80;;;;;;4986387;28;20193;-66
2021/06/14 05:57:08;;;;;;;18.27;8.70;;;24.40;39.80;;;;;;4990978;28;20213;-67
2021/06/14 05:59:40;;;;;;;16.53;7.40;;;24.00;39.00;;;;;;4985959;28;20268;-65
2021/06/14 06:02:09;;;;;;;15.63;7.47;;;23.70;38.50;;;;;;4980300;28;20240;-66
2021/06/14 06:04:43;;;;;;;14.70;6.97;;;23.40;43.30;;;;;;4970645;28;20193;-66
2021/06/14 06:07:13;;;;;;;13.43;7.40;;;23.40;49.80;;;;;;4990353;28;20281;-68
2021/06/14 06:09:41;;;;;;;12.37;7.17;;;23.50;53.60;;;;;;4985613;28;20197;-68
2021/06/14 06:12:11;;;;;;;13.57;6.20;;;23.60;50.80;;;;;;4984527;28;20205;-69
2021/06/14 06:14:41;;;;;;;11.73;6.07;;;23.50;45.20;;;;;;4995793;28;20211;-67
2021/06/14 06:17:10;;;;;;;15.87;6.13;;;23.30;43.30;;;;;;4971369;28;20205;-67
2021/06/14 06:19:38;;;;;;;13.90;5.90;;;23.20;44.60;;;;;;4987210;28;20208;-67
2021/06/14 06:22:07;;;;;;;10.57;5.60;;;23.10;45.60;;;;;;4984898;28;20286;-64
2021/06/14 06:24:39;;;;;;;11.93;5.67;;;23.20;51.80;;;;;;4967516;28;20533;-71
2021/06/14 06:27:11;;;;;;;10.03;5.73;;;23.40;55.50;;;;;;4986722;28;20618;-70
2021/06/14 06:29:38;;;;;;;16.57;6.30;;;23.50;53.80;;;;;;4987610;28;20196;-65
2021/06/14 06:32:10;;;;;;;11.80;5.93;;;23.50;47.70;;;;;;4970478;28;20211;-64
2021/06/14 06:34:38;;;;;;;12.93;5.30;;;23.50;44.10;;;;;;4988388;28;20204;-65
2021/06/14 06:37:09;;;;;;;12.83;5.60;;;23.40;43.90;;;;;;4966880;28;20197;-67
2021/06/14 06:39:39;;;;;;;16.33;6.30;;;23.50;48.50;;;;;;4982526;28;20609;-70
2021/06/14 06:42:10;;;;;;;11.00;5.73;;;23.50;53.30;;;;;;4986190;28;20941;-68
2021/06/14 06:44:39;;;;;;;10.57;5.33;;;23.60;55.90;;;;;;4985774;28;20335;-68
2021/06/14 06:47:08;;;;;;;11.50;5.10;;;23.70;56.00;;;;;;4986128;28;20226;-68
2021/06/14 06:49:37;;;;;;;13.57;5.60;;;23.70;48.80;;;;;;4982596;28;20197;-67
2021/06/14 06:52:07;;;;;;;7.50;4.37;;;23.70;44.60;;;;;;4985344;28;20462;-68
2021/06/14 06:54:35;;;;;;;7.63;4.80;;;23.60;45.90;;;;;;4983762;28;20196;-67
2021/06/14 06:57:06;;;;;;;9.60;5.20;;;23.60;51.90;;;;;;4984921;28;20215;-66
2021/06/14 06:59:48;;;;;;;9.00;4.90;;;23.60;55.30;;;;;;4964437;28;21185;-65
2021/06/14 07:02:18;;;;;;;10.10;4.73;;;23.70;56.30;;;;;;4972104;28;20232;-70
2021/06/14 07:04:51;;;;;;;8.40;4.90;;;23.80;52.20;;;;;;4995813;28;20253;-70
2021/06/14 07:07:21;;;;;;;5.63;4.10;;;23.70;46.50;;;;;;4987753;28;20229;-65
2021/06/14 07:09:49;;;;;;;7.87;4.43;;;23.60;43.90;;;;;;4972085;28;20208;-65
2021/06/14 07:12:18;;;;;;;6.17;4.10;;;23.50;44.90;;;;;;4985465;28;20714;-68
2021/06/14 07:14:53;;;;;;;8.67;4.60;;;23.50;51.00;;;;;;4957041;28;20220;-67
2021/06/14 07:17:26;;;;;;;7.43;5.17;;;23.60;55.20;;;;;;4979032;28;20204;-67
2021/06/14 07:19:57;;;;;;;8.50;4.87;;;23.70;57.60;;;;;;4982573;28;20212;-69
2021/06/14 07:22:29;;;;;;;8.70;4.50;;;23.70;57.30;;;;;;4963466;28;20329;-69
2021/06/14 07:25:00;;;;;;;8.57;4.60;;;23.70;49.70;;;;;;4981549;28;20216;-68
2021/06/14 07:27:28;;;;;;;10.03;4.47;;;23.70;45.80;;;;;;4968438;28;20240;-64
2021/06/14 07:30:08;;;;;;;7.90;4.70;;;23.60;44.80;;;;;;4978168;28;20299;-68
2021/06/14 07:32:38;;;;;;;10.13;4.90;;;23.50;51.80;;;;;;4980931;28;20211;-67
2021/06/14 07:35:10;;;;;;;9.17;4.90;;;23.60;56.00;;;;;;4990432;28;20219;-67
2021/06/14 07:37:46;;;;;;;7.27;4.43;;;23.70;58.20;;;;;;4963982;28;20317;-67
2021/06/14 07:40:18;;;;;;;6.37;4.47;;;23.70;56.50;;;;;;4991579;28;20238;-67
2021/06/14 07:42:49;;;;;;;7.90;4.10;;;23.60;49.20;;;;;;4973324;28;20224;-67
2021/06/14 07:45:24;;;;;;;6.63;4.27;;;23.50;45.70;;;;;;4991283;28;20232;-67
2021/06/14 07:48:07;;;;;;;6.13;4.33;;;23.50;46.30;;;;;;4986186;28;20279;-67
2021/06/14 07:50:36;;;;;;;6.70;4.60;;;23.50;52.80;;;;;;4983472;28;20208;-65
2021/06/14 07:53:08;;;;;;;6.90;4.30;;;23.50;56.40;;;;;;4987142;28;20224;-66
2021/06/14 07:55:39;;;;;;;6.20;4.40;;;23.60;57.90;;;;;;4980429;28;20209;-67
2021/06/14 07:58:10;;;;;;;5.60;4.20;;;23.70;58.50;;;;;;4986498;28;20213;-66
2021/06/14 08:00:41;;;;;;;6.73;4.40;;;23.70;52.20;;;;;;4971805;28;20641;-66
2021/06/14 08:03:13;;;;;;;6.87;4.20;;;23.60;47.30;;;;;;4966882;28;20315;-66
2021/06/14 08:05:44;;;;;;;5.03;4.20;;;23.50;47.20;;;;;;4971799;28;20836;-67
2021/06/14 08:08:14;;;;;;;5.33;3.93;;;23.50;53.30;;;;;;4987091;28;20734;-68
2021/06/14 08:10:49;;;;;;;6.23;4.53;;;23.60;56.90;;;;;;5070487;28;20741;-66
2021/06/14 08:13:19;;;;;;;5.47;3.70;;;23.70;58.40;;;;;;5042875;28;20396;-66
2021/06/14 08:15:46;;;;;;;3.93;3.50;;;23.80;55.10;;;;;;5035454;28;20229;-67
2021/06/14 08:21:25;;;;;;;5.20;3.87;;;23.60;46.00;;;;;;5020244;28;20210;-64
2021/06/14 08:26:47;;;;;;;4.17;3.37;;;23.60;56.70;;;;;;5030461;28;20217;-64
2021/06/14 08:29:16;;;;;;;4.80;4.03;;;23.70;58.60;;;;;;5044434;28;20352;-65
2021/06/14 08:31:43;;;;;;;4.50;3.50;;;23.70;56.10;;;;;;5034105;28;20378;-67
2021/06/14 08:34:13;;;;;;;4.00;3.30;;;23.70;49.70;;;;;;5035397;28;20205;-64
2021/06/14 08:36:45;;;;;;;4.37;3.43;;;23.60;46.50;;;;;;5038555;28;20321;-65
2021/06/14 08:39:15;;;;;;;4.50;4.10;;;23.60;51.90;;;;;;5019271;28;20688;-65
2021/06/14 08:41:47;;;;;;;5.20;3.50;;;23.60;56.70;;;;;;5016173;28;20214;-68
2021/06/14 08:44:14;;;;;;;5.47;3.63;;;23.70;59.00;;;;;;5047203;28;20306;-68
2021/06/14 08:46:43;;;;;;;4.43;3.80;;;23.70;56.10;;;;;;5018395;28;20356;-63
2021/06/14 08:49:17;;;;;;;5.33;3.30;;;23.70;49.70;;;;;;5020728;28;20211;-65
2021/06/14 08:51:46;;;;;;;4.50;3.37;;;23.60;46.60;;;;;;5015998;28;20218;-67
2021/06/14 08:54:18;;;;;;;4.67;3.90;;;23.60;52.30;;;;;;5004399;28;20652;-68
2021/06/14 08:56:46;;;;;;;4.83;3.97;;;23.60;56.40;;;;;;5047190;28;20233;-64
2021/06/14 08:59:16;;;;;;;5.33;3.80;;;23.70;58.80;;;;;;5016086;28;20215;-64
2021/06/14 09:01:46;;;;;;;5.17;3.77;;;23.80;55.90;;;;;;5013907;28;20219;-65
2021/06/14 09:04:15;;;;;;;4.77;3.40;;;23.80;49.80;;;;;;5021627;28;20201;-64
2021/06/14 09:06:48;;;;;;;5.20;3.57;;;23.70;46.80;;;;;;5017976;28;20207;-67
2021/06/14 09:09:36;;;;;;;3.50;3.20;;;23.70;52.70;;;;;;5016432;28;20250;-67
2021/06/14 09:12:07;;;;;;;4.37;3.63;;;23.70;57.70;;;;;;5019916;28;20928;-67
2021/06/14 09:14:42;;;;;;;4.40;3.50;;;23.70;59.00;;;;;;5018992;28;20298;-67
2021/06/14 09:17:17;;;;;;;3.93;3.07;;;23.80;52.80;;;;;;5019304;28;20205;-67
2021/06/14 09:19:53;;;;;;;5.27;3.63;;;23.70;48.30;;;;;;5020805;28;20642;-69
2021/06/14 09:22:24;;;;;;;4.47;3.70;;;23.70;49.50;;;;;;5005281;28;20242;-67
2021/06/14 09:25:12;;;;;;;4.83;3.73;;;23.70;55.90;;;;;;5018570;28;20214;-67
2021/06/14 09:27:51;;;;;;;3.40;3.10;;;23.80;59.30;;;;;;5004044;28;21005;-69
2021/06/14 09:30:30;;;;;;;4.43;3.53;;;23.80;54.80;;;;;;5008025;28;20216;-69
2021/06/14 09:33:22;;;;;;;4.73;3.13;;;23.80;49.10;;;;;;5006337;28;20227;-68
2021/06/14 09:36:06;;;;;;;4.50;3.70;;;23.70;49.40;;;;;;5009022;28;20192;-64
2021/06/14 09:38:40;;;;;;;5.03;3.50;;;23.70;56.40;;;;;;5000131;28;20218;-64
2021/06/14 09:41:13;;;;;;;3.50;3.20;;;23.80;59.10;;;;;;5008180;28;20708;-70
2021/06/14 09:43:50;;;;;;;5.97;3.23;;;23.80;53.70;;;;;;5011708;28;20310;-70
2021/06/14 09:46:33;;;;;;;3.30;3.00;;;23.70;48.60;;;;;;5005606;28;20191;-70
2021/06/14 09:49:07;;;;;;;3.50;3.20;;;23.60;49.70;;;;;;5003098;28;20588;-70
2021/06/14 09:51:36;;;;;;;3.47;3.10;;;23.60;56.00;;;;;;5000731;28;20613;-70
2021/06/14 09:54:07;;;;;;;3.87;3.43;;;23.70;58.90;;;;;;5006824;28;20254;-71
2021/06/14 09:56:39;;;;;;;3.17;2.93;;;23.70;57.70;;;;;;5007699;28;20222;-65
2021/06/14 09:59:10;;;;;;;3.57;2.83;;;23.70;51.20;;;;;;5008480;28;20228;-64
2021/06/14 10:01:41;;;;;;;3.00;2.80;;;23.60;47.90;;;;;;5000173;28;20232;-63
2021/06/14 10:04:11;;;;;;;3.80;3.17;;;23.60;52.40;;;;;;5005216;28;20218;-64
2021/06/14 10:06:47;;;;;;;4.70;3.37;;;23.70;57.30;;;;;;5018501;28;20226;-66
2021/06/14 10:09:17;;;;;;;4.17;3.40;;;23.70;60.00;;;;;;5004561;28;20704;-67
2021/06/14 10:11:47;;;;;;;2.83;2.57;;;23.80;55.00;;;;;;5003756;28;20199;-69
2021/06/14 10:14:21;;;;;;;3.37;2.50;;;23.70;49.60;;;;;;5004551;28;20238;-67
2021/06/14 10:16:52;;;;;;;4.63;2.93;;;23.70;49.30;;;;;;4998249;28;20195;-64
2021/06/14 10:19:26;;;;;;;4.43;3.40;;;23.70;56.10;;;;;;5003920;28;20204;-65
2021/06/14 10:21:55;;;;;;;4.27;3.00;;;23.80;59.20;;;;;;5009981;28;20195;-67
2021/06/14 10:24:31;;;;;;;3.17;2.80;;;23.80;54.20;;;;;;5006706;28;20293;-66
2021/06/14 10:27:17;;;;;;;3.37;2.87;;;23.70;48.80;;;;;;5006693;28;20279;-67
2021/06/14 10:29:52;;;;;;;3.87;3.43;;;23.60;51.20;;;;;;5007987;28;20272;-65
2021/06/14 10:32:20;;;;;;;9.03;3.27;;;23.70;57.70;;;;;;5007269;28;20192;-65
2021/06/14 10:34:56;;;;;;;4.20;3.30;;;23.80;60.50;;;;;;5004975;28;20195;-65
2021/06/14 10:37:25;;;;;;;3.47;2.70;;;23.80;53.40;;;;;;5005086;28;20683;-68
2021/06/14 10:40:00;;;;;;;3.43;2.87;;;23.80;49.30;;;;;;5022139;28;20710;-68
2021/06/14 10:42:35;;;;;;;3.10;2.80;;;23.70;52.30;;;;;;5005944;28;20196;-66
2021/06/14 10:45:08;;;;;;;4.20;3.00;;;23.80;58.50;;;;;;5023485;28;20214;-65
2021/06/14 10:47:40;;;;;;;3.27;2.90;;;23.80;57.60;;;;;;5005422;28;20632;-66
2021/06/14 10:50:12;;;;;;;5.33;2.67;;;23.80;51.30;;;;;;5008762;28;20720;-66
2021/06/14 10:52:48;;;;;;;3.10;2.80;;;23.70;48.60;;;;;;5007534;28;20231;-67
2021/06/14 10:55:24;;;;;;;4.60;2.97;;;23.70;56.20;;;;;;5023519;28;20195;-67
2021/06/14 10:57:53;;;;;;;3.37;2.37;;;23.80;59.30;;;;;;5008826;28;20198;-69
2021/06/14 11:00:29;;;;;;;2.67;2.17;;;23.80;53.00;;;;;;5006636;28;20696;-68
2021/06/14 11:03:05;;;;;;;3.17;2.87;;;23.80;49.60;;;;;;5008515;28;20203;-68
2021/06/14 11:05:57;;;;;;;2.80;2.57;;;23.70;49.60;;;;;;5001826;28;20269;-69
2021/06/14 11:08:24;;;;;;;3.40;3.10;;;23.70;55.90;;;;;;5004368;28;20214;-71
2021/06/14 11:11:12;;;;;;;3.93;3.07;;;23.80;59.60;;;;;;5008092;28;20230;-71
2021/06/14 11:13:53;;;;;;;3.17;2.67;;;23.80;54.10;;;;;;4991424;28;20236;-71
2021/06/14 11:16:23;;;;;;;3.03;2.83;;;23.80;49.60;;;;;;5003166;28;20192;-68
2021/06/14 11:19:04;;;;;;;2.80;2.50;;;23.70;50.50;;;;;;5014060;28;20675;-70
2021/06/14 11:21:35;;;;;;;3.90;2.83;;;23.70;57.40;;;;;;5007580;28;20206;-67
2021/06/14 11:24:12;;;;;;;3.57;2.37;;;23.80;58.00;;;;;;5004138;28;20208;-69
2021/06/14 11:26:40;;;;;;;2.67;2.10;;;23.80;51.90;;;;;;5009441;28;20203;-71
2021/06/14 11:29:17;;;;;;;4.83;2.80;;;23.80;49.30;;;;;;5021482;28;20195;-71
2021/06/14 11:32:05;;;;;;;4.27;2.87;;;23.80;51.00;;;;;;5007777;28;20211;-70
2021/06/14 11:34:42;;;;;;;2.77;2.57;;;23.80;52.30;;;;;;5003555;28;20220;-71
2021/06/14 11:37:13;;;;;;;4.33;2.50;;;23.80;59.80;;;;;;5024435;28;20196;-70
2021/06/14 11:39:58;;;;;;;5.40;2.70;;;23.90;57.10;;;;;;5008064;28;20223;-71
2021/06/14 11:42:29;;;;;;;2.87;2.67;;;23.90;51.30;;;;;;5011458;28;20207;-69
2021/06/14 11:45:03;;;;;;;4.87;2.50;;;23.90;50.70;;;;;;5007544;28;20253;-71
2021/06/14 11:47:40;;;;;;;5.33;2.70;;;23.80;51.90;;;;;;5001293;28;20267;-70
2021/06/14 11:50:11;;;;;;;3.37;3.07;;;23.80;53.00;;;;;;5020738;28;20250;-69
2021/06/14 11:52:42;;;;;;;4.97;2.70;;;23.90;53.30;;;;;;5007539;28;20685;-71
2021/06/14 11:55:13;;;;;;;3.47;2.50;;;23.90;53.50;;;;;;5014257;28;20207;-71
2021/06/14 11:57:56;;;;;;;4.97;3.07;;;23.90;53.70;;;;;;5001404;28;20204;-72
2021/06/14 12:00:39;;;;;;;8.53;3.10;;;23.90;53.50;;;;;;5001676;28;20221;-69
2021/06/14 12:03:24;;;;;;;4.60;3.00;;;23.90;53.60;;;;;;5008820;28;20195;-70
2021/06/14 12:05:55;;;;;;;6.87;3.20;;;24.00;53.30;;;;;;5005147;28;20770;-67
2021/06/14 12:08:26;;;;;;;6.20;3.70;;;24.00;53.20;;;;;;5004634;28;20219;-67
2021/06/14 12:11:12;;;;;;;8.07;3.70;;;24.00;53.00;;;;;;5005468;28;20219;-68
2021/06/14 12:13:42;;;;;;;7.67;3.63;;;24.00;53.20;;;;;;5006601;28;20203;-71
2021/06/14 12:16:14;;;;;;;11.07;3.50;;;24.00;53.20;;;;;;4988394;28;20225;-70
2021/06/14 12:18:43;;;;;;;6.23;3.33;;;24.10;53.10;;;;;;5001633;28;20207;-69
2021/06/14 12:21:25;;;;;;;8.23;4.27;;;24.00;53.10;;;;;;5018479;28;20211;-72
2021/06/14 12:23:58;;;;;;;7.57;3.90;;;24.10;52.90;;;;;;5012024;28;20204;-72
2021/06/14 12:26:40;;;;;;;9.33;3.70;;;24.10;52.80;;;;;;5003815;28;20221;-68
2021/06/14 12:29:24;;;;;;;10.60;3.83;;;24.10;52.70;;;;;;5003500;28;20319;-68
2021/06/14 12:32:16;;;;;;;7.27;4.17;;;24.10;52.70;;;;;;4998773;28;20206;-70
2021/06/14 12:34:48;;;;;;;5.47;3.67;;;24.10;52.80;;;;;;5014192;28;20286;-68
2021/06/14 12:37:24;;;;;;;7.90;3.17;;;24.10;52.60;;;;;;5007366;28;20200;-70
2021/06/14 12:40:16;;;;;;;9.03;4.50;;;24.20;52.40;;;;;;5005662;28;20972;-70
2021/06/14 12:42:54;;;;;;;8.33;4.10;;;24.20;52.70;;;;;;4990344;28;20204;-68
2021/06/14 12:45:24;;;;;;;8.50;3.97;;;24.10;52.50;;;;;;4997549;28;20551;-70
2021/06/14 12:47:56;;;;;;;8.27;3.83;;;24.20;52.30;;;;;;5001662;28;20322;-68
2021/06/14 12:50:33;;;;;;;6.70;3.83;;;24.20;52.20;;;;;;5016347;28;20223;-72
2021/06/14 12:53:06;;;;;;;9.03;3.87;;;24.20;52.10;;;;;;5021092;28;20557;-70
2021/06/14 12:55:41;;;;;;;7.17;3.90;;;24.20;52.00;;;;;;5001255;28;20227;-72
2021/06/14 12:58:36;;;;;;;9.67;3.93;;;24.30;51.90;;;;;;5005249;28;20210;-71
2021/06/14 13:01:09;;;;;;;8.87;3.80;;;24.20;51.90;;;;;;5004689;28;20630;-70
2021/06/14 13:03:57;;;;;;;7.43;3.57;;;24.30;51.90;;;;;;5007589;28;20587;-68
2021/06/14 13:06:32;;;;;;;6.07;3.47;;;24.30;51.90;;;;;;4998952;28;20838;-69
2021/06/14 13:09:04;;;;;;;9.77;4.00;;;24.30;51.60;;;;;;5006850;28;20266;-71
2021/06/14 13:11:46;;;;;;;6.40;3.77;;;24.30;51.60;;;;;;5008177;28;20242;-67
2021/06/14 13:14:29;;;;;;;9.20;3.93;;;24.30;51.40;;;;;;5010469;28;20195;-68
2021/06/14 13:16:58;;;;;;;6.30;3.70;;;24.30;51.20;;;;;;5038713;28;20709;-67
2021/06/14 13:19:28;;;;;;;10.17;3.80;;;24.30;51.00;;;;;;5008415;28;20261;-68
2021/06/14 13:22:13;;;;;;;6.97;3.30;;;24.30;51.00;;;;;;5009926;28;20199;-74
2021/06/14 13:24:45;;;;;;;5.20;3.27;;;24.30;50.90;;;;;;5004508;28;20338;-72